• Join FlightAware (Why Join?)
  • Login
  • US Flag 
05:24AM EDT


 

Airport Tracker/Info


-or-


 

Live Flight TrackerFlight Track Log ✈ N66SG ✈ 04-May-2013 ✈ KGON - KPTK

Flight Track Log - Related Links

Times and Time Zones

All times are in EDT time to prevent confusion due to time zone crossing. See the N66SG flight status page for this flight to view local times or setup timezone preferences in your user account.

Time Position Orientation Groundspeed Altitude Reporting Facility
EDT Latitude Longitude Course Direction KTS MPH feet Rate Location/Type
12:05AM 41.4264 -72.0192 304° West 320 368 6,200  Level Boston Center
12:06AM 41.5014 -72.0106 North 246 283 10,400 3,840 Climbing Boston Center
12:07AM 41.5722 -72.0517 337° Northwest 268 308 14,400 3,060 Climbing Boston Center
12:08AM 41.6039 -72.1819 288° West 303 349 18,200 3,120 Climbing Boston Center
12:09AM 41.6522 -72.3233 295° West 330 380 22,000 2,460 Climbing Boston Center
12:10AM 41.6563 -72.4626 304° West  Level FlightAware Approximate
12:10AM 41.6961 -72.4456 296° West 353 406 23,100  Level Boston Center
12:11AM 41.7397 -72.5986 291° West 400 460 23,100 480 Level Boston Center
12:12AM 41.7642 -72.7603 282° West 431 496 24,100 1,860 Climbing Boston Center
12:13AM 41.7931 -72.9161 284° West 437 503 26,900 2,400 Climbing Boston Center
12:14AM 41.8172 -73.0417 285° West 414 476 29,000 2,160 Climbing Boston Center
12:15AM 41.8436 -73.1842 284° West 402 463 31,300 2,280 Climbing Boston Center
12:16AM 41.8717 -73.3294 285° West 402 463 33,600 2,100 Climbing Boston Center
12:17AM 41.8975 -73.4719 284° West 402 463 35,600 2,040 Climbing Boston Center
12:18AM 41.9233 -73.6147 284° West 397 457 37,700 2,040 Climbing Boston Center
12:19AM 41.9489 -73.7519 284° West 397 457 39,700 1,620 Climbing Boston Center
12:20AM 41.9722 -73.8894 283° West 386 444 41,000 960 Climbing Boston Center
12:21AM 41.9997 -74.0242 285° West 386 444 41,700 600 Climbing Boston Center
12:22AM 42.0225 -74.1644 282° West 381 438 42,300 600 Climbing Boston Center
12:23AM 42.0494 -74.3078 284° West 381 438 43,000 300 Climbing Boston Center
12:24AM 42.0781 -74.4708 283° West 400 460 43,000  Level Boston Center
12:25AM 42.1042 -74.6283 283° West 419 482 43,000  Level Boston Center
12:26AM 42.1322 -74.7917 283° West 432 497 43,000  Level Boston Center
12:27AM 42.1619 -74.9581 284° West 449 517 43,000  Level Boston Center
12:28AM 42.1894 -75.1219 283° West 449 517 43,000  Level Boston Center
12:29AM 42.2189 -75.2856 284° West 449 517 43,000  Level Boston Center
12:30AM 42.2478 -75.4525 283° West 454 522 43,000  Level Boston Center
12:31AM 42.2744 -75.6194 282° West 454 522 43,000  Level Boston Center
12:32AM 42.3011 -75.7864 282° West 454 522 43,000  Level Boston Center
12:33AM 42.3272 -75.9536 282° West 454 522 43,000  Level Boston Center
12:34AM 42.3553 -76.1239 283° West 454 522 43,000  Level Boston Center
12:36AM 42.4069 -76.4461 282° West 466 536 43,000  Level Cleveland Center
12:37AM 42.4000 -76.4667 245° Southwest 460 529 43,000  Level Toronto Center
12:38AM 42.4333 -76.6500 284° West 450 518 43,000  Level Toronto Center
12:38AM 42.4528 -76.7472 285° West 461 531 43,000  Level Cleveland Center
12:39AM 42.4789 -76.9147 282° West 467 537 43,000  Level Cleveland Center
12:40AM 42.5053 -77.0933 281° West 462 532 43,000  Level Cleveland Center
12:41AM 42.5314 -77.2639 282° West 462 532 43,000  Level Cleveland Center
12:42AM 42.5547 -77.4289 281° West 462 532 43,000  Level Cleveland Center
12:43AM 42.5800 -77.6025 281° West 471 542 43,000  Level Cleveland Center
12:44AM 42.6053 -77.7764 281° West 471 542 43,000  Level Cleveland Center
12:45AM 42.6300 -77.9417 282° West 463 533 43,000  Level Cleveland Center
12:46AM 42.6400 -78.1106 275° West 463 533 43,000  Level Cleveland Center
12:47AM 42.6458 -78.2856 273° West 463 533 43,000  Level Cleveland Center
12:48AM 42.6469 -78.4547 271° West 457 526 43,000  Level Cleveland Center
12:49AM 42.6542 -78.6267 273° West 457 526 43,000  Level Cleveland Center
12:50AM 42.6592 -78.7989 272° West 457 526 43,000  Level Cleveland Center
12:51AM 42.6617 -78.9711 271° West 457 526 43,000  Level Cleveland Center
12:52AM 42.6658 -79.1431 272° West 457 526 43,000  Level Cleveland Center
12:53AM 42.6681 -79.3153 271° West 457 526 43,000  Level Cleveland Center
12:54AM 42.6697 -79.4875 271° West 457 526 43,000  Level Cleveland Center
12:55AM 42.6733 -79.6653 272° West 457 526 43,000  Level Cleveland Center
12:56AM 42.6767 -79.8378 272° West 457 526 43,000 -300 Level Cleveland Center
12:57AM 42.6778 -80.0269 271° West 457 526 42,500 -1,080 Descending Cleveland Center
12:58AM 42.6783 -80.1992 270° West 457 526 40,900 -1,920 Descending Cleveland Center
12:59AM 42.6808 -80.3658 271° West 450 518 38,700 -2,040 Descending Cleveland Center
01:00AM 42.6811 -80.5156 270° West 445 512 36,900 -2,040 Descending Cleveland Center
01:01AM 42.6811 -80.6792 270° West 438 504 34,700 -2,220 Descending Cleveland Center
01:02AM 42.6831 -80.8403 271° West 438 504 32,500 -2,220 Descending Cleveland Center
01:03AM 42.6844 -81.0097 271° West 438 504 30,300 -2,160 Descending Cleveland Center
01:04AM 42.6836 -81.1819 270° West 445 512 28,200 -2,100 Descending Cleveland Center
01:05AM 42.6828 -81.3542 270° West 458 527 26,100 -2,100 Descending Cleveland Center
01:06AM 42.6836 -81.5236 270° West 458 527 24,000 -2,100 Descending Cleveland Center
01:07AM 42.6819 -81.6958 269° West 458 527 21,900 -2,220 Descending Cleveland Center
01:08AM 42.6822 -81.8853 270° West 458 527 19,600 -2,100 Descending Cleveland Center
01:09AM 42.6800 -82.0517 269° West 458 527 17,700 -2,040 Descending Cleveland Center
01:10AM 42.6778 -82.2156 269° West 453 521 15,600 -2,100 Descending Cleveland Center
01:11AM 42.6775 -82.3736 270° West 438 504 13,500 -2,160 Descending Cleveland Center
01:12AM 42.6781 -82.4753 270° West 407 468 12,200 -2,100 Descending Cleveland Center
01:12AM 42.6772 -82.5233 269° West 420 483 11,400 -1,620 Descending Cleveland Center
01:13AM 42.6775 -82.6250 270° West 334 384 10,400 -1,140 Descending Cleveland Center
01:13AM 42.6750 -82.6589 264° West 387 445 10,300 -1,140 Descending Cleveland Center
01:14AM 42.6756 -82.7381 271° West 291 335 9,300 -1,440 Descending Cleveland Center
01:14AM 42.6728 -82.7689 263° West 338 389 8,900 -1,620 Descending Cleveland Center
01:15AM 42.6733 -82.8536 271° West 282 325 7,700 -1,500 Descending Cleveland Center
01:15AM 42.6731 -82.8733 269° West 301 346 7,400 -1,560 Descending Cleveland Center
01:16AM 42.6731 -82.9667 270° West 274 315 6,000 -1,560 Descending Cleveland Center
01:17AM 42.6711 -83.0683 269° West 272 313 4,500 -960 Descending Cleveland Center
01:18AM 42.6664 -83.1753 267° West 277 319 4,000 -240 Descending Cleveland Center
01:19AM 42.6642 -83.2797 268° West 277 319 4,000  Level Cleveland Center
01:20AM 42.6617 -83.3869 268° West 277 319 4,000  Level Cleveland Center
01:21AM 42.6589 -83.4914 268° West 277 319 4,000  Level Cleveland Center
01:23AM 42.6500 -83.4167 90° East  Level FlightAware Approximate
01:30AM 42.6656 -83.4205 90° East  Level Estimated